createdAt,value
2022-12-19T00:02:00.208Z,33.13
2022-12-19T00:04:26.148Z,36.77
2022-12-19T00:06:51.855Z,35.60
2022-12-19T00:09:17.643Z,33.03
2022-12-19T00:11:43.412Z,32.50
2022-12-19T00:14:10.318Z,34.17
2022-12-19T00:16:36.216Z,32.50
2022-12-19T00:19:02.032Z,32.03
2022-12-19T00:21:29.363Z,37.90
2022-12-19T00:23:55.520Z,34.20
2022-12-19T00:26:22.639Z,31.47
2022-12-19T00:28:52.300Z,29.40
2022-12-19T00:31:18.574Z,32.30
2022-12-19T00:33:44.975Z,32.10
2022-12-19T00:36:12.251Z,30.17
2022-12-19T00:38:38.230Z,31.33
2022-12-19T00:41:11.463Z,32.10
2022-12-19T00:43:37.510Z,27.03
2022-12-19T00:46:03.824Z,29.03
2022-12-19T00:48:30.013Z,30.23
2022-12-19T00:51:02.655Z,27.43
2022-12-19T00:53:28.644Z,27.10
2022-12-19T00:55:54.375Z,26.27
2022-12-19T00:58:20.152Z,27.60
2022-12-19T01:00:45.960Z,30.00
2022-12-19T01:03:11.789Z,27.13
2022-12-19T01:05:37.551Z,32.00
2022-12-19T01:08:06.507Z,24.43
2022-12-19T01:10:32.244Z,31.27
2022-12-19T01:12:57.947Z,26.97
2022-12-19T01:15:23.675Z,29.43
2022-12-19T01:17:49.832Z,29.50
2022-12-19T01:20:17.055Z,33.30
2022-12-19T01:22:44.925Z,24.97
2022-12-19T01:25:11.015Z,23.73
2022-12-19T01:27:36.791Z,29.43
2022-12-19T01:30:03.279Z,22.13
2022-12-19T01:32:29.040Z,26.03
2022-12-19T01:34:54.765Z,27.43
2022-12-19T01:37:20.673Z,25.20
2022-12-19T01:39:46.709Z,31.97
2022-12-19T01:42:23.440Z,30.47
2022-12-19T01:45:08.203Z,24.70
2022-12-19T01:47:53.502Z,24.13
2022-12-19T01:50:31.725Z,28.97
2022-12-19T01:52:58.813Z,26.70
2022-12-19T01:55:24.996Z,29.03
2022-12-19T01:57:51.117Z,26.93
2022-12-19T02:00:16.894Z,23.33
2022-12-19T02:02:44.423Z,26.37
2022-12-19T02:05:10.338Z,23.77
2022-12-19T02:07:36.570Z,30.27
2022-12-19T02:10:02.809Z,25.27
2022-12-19T02:12:32.286Z,27.63
2022-12-19T02:15:02.755Z,25.30
2022-12-19T02:17:35.013Z,26.20
2022-12-19T02:20:00.758Z,30.33
2022-12-19T02:22:34.310Z,27.77
2022-12-19T02:25:18.571Z,33.00
2022-12-19T02:27:47.316Z,20.93
2022-12-19T02:30:17.597Z,28.83
2022-12-19T02:32:49.176Z,26.48
2022-12-19T02:35:25.093Z,23.97
2022-12-19T02:38:09.407Z,25.40
2022-12-19T02:40:44.477Z,27.83
2022-12-19T02:43:12.825Z,24.63
2022-12-19T02:45:39.039Z,23.63
2022-12-19T02:48:09.060Z,21.57
2022-12-19T02:50:35.954Z,23.60
2022-12-19T02:53:01.702Z,20.00
2022-12-19T02:55:27.578Z,25.07
2022-12-19T02:58:13.433Z,22.10
2022-12-19T03:00:48.387Z,24.43
2022-12-19T03:03:37.228Z,25.00
2022-12-19T03:06:12.025Z,27.93
2022-12-19T03:08:54.964Z,26.53
2022-12-19T03:11:21.174Z,22.13
2022-12-19T03:13:55.706Z,27.83
2022-12-19T03:16:21.631Z,24.07
2022-12-19T03:18:47.517Z,22.17
2022-12-19T03:21:31.467Z,23.73
2022-12-19T03:23:58.104Z,23.13
2022-12-19T03:26:27.116Z,25.00
2022-12-19T03:28:55.211Z,27.53
2022-12-19T03:31:22.403Z,28.90
2022-12-19T03:33:49.889Z,23.17
2022-12-19T03:36:19.084Z,25.13
2022-12-19T03:38:45.434Z,25.77
2022-12-19T03:41:12.673Z,25.77
2022-12-19T03:43:39.445Z,27.93
2022-12-19T03:46:10.815Z,30.37
2022-12-19T03:48:44.426Z,23.47
2022-12-19T03:51:21.133Z,25.50
2022-12-19T03:53:59.618Z,24.73
2022-12-19T03:56:28.095Z,30.60
2022-12-19T03:58:57.833Z,23.27
2022-12-19T04:01:25.728Z,25.13
2022-12-19T04:03:51.701Z,23.77
2022-12-19T04:06:17.947Z,26.10
2022-12-19T04:08:44.268Z,28.30
2022-12-19T04:11:14.931Z,29.63
2022-12-19T04:16:09.380Z,27.83
2022-12-19T04:18:35.733Z,26.77
2022-12-19T04:21:03.135Z,26.23
2022-12-19T04:23:39.358Z,28.87
2022-12-19T04:26:06.122Z,27.90
2022-12-19T04:28:31.838Z,29.23
2022-12-19T04:30:58.577Z,25.93
2022-12-19T04:33:24.427Z,24.57
2022-12-19T04:35:50.252Z,22.93
2022-12-19T04:38:16.022Z,25.27
2022-12-19T04:40:42.016Z,23.87
2022-12-19T04:43:07.989Z,22.60
2022-12-19T04:45:34.137Z,24.87
2022-12-19T04:48:00.225Z,22.40
2022-12-19T04:50:26.019Z,29.67
2022-12-19T04:52:56.905Z,26.97
2022-12-19T04:55:23.186Z,22.57
2022-12-19T04:57:48.933Z,25.27
2022-12-19T05:00:15.033Z,27.53
2022-12-19T05:02:40.930Z,24.93
2022-12-19T05:05:06.993Z,26.30
2022-12-19T05:07:32.728Z,27.47
2022-12-19T05:09:58.471Z,23.73
2022-12-19T05:12:24.200Z,25.10
2022-12-19T05:14:49.965Z,23.57
2022-12-19T05:17:15.731Z,27.23
2022-12-19T05:19:41.460Z,27.23
2022-12-19T05:22:07.201Z,23.27
2022-12-19T05:24:32.940Z,23.07
2022-12-19T05:26:59.231Z,28.83
2022-12-19T05:29:24.978Z,25.27
2022-12-19T05:31:50.831Z,34.70
2022-12-19T05:34:16.589Z,27.00
2022-12-19T05:36:42.428Z,25.57
2022-12-19T05:39:08.264Z,26.93
2022-12-19T05:41:37.034Z,23.77
2022-12-19T05:44:07.859Z,27.77
2022-12-19T05:49:19.180Z,27.47
2022-12-19T06:04:53.053Z,24.13
2022-12-19T06:07:21.205Z,25.27
2022-12-19T06:15:23.852Z,26.87
2022-12-19T06:18:03.549Z,26.10
2022-12-19T06:20:44.710Z,26.23
2022-12-19T06:26:34.131Z,27.87
2022-12-19T06:31:47.422Z,31.93
2022-12-19T07:43:55.371Z,32.23
2022-12-19T07:46:25.900Z,24.97
2022-12-19T07:51:41.938Z,24.37
2022-12-19T07:54:14.403Z,23.40
2022-12-19T07:56:41.454Z,26.20
2022-12-19T07:59:09.992Z,28.07
2022-12-19T08:07:00.813Z,23.60
2022-12-19T08:09:34.467Z,23.27
2022-12-19T08:12:02.021Z,24.83
2022-12-19T08:14:37.174Z,23.30
2022-12-19T08:17:21.637Z,29.37
2022-12-19T08:22:29.726Z,23.67
2022-12-19T08:24:57.041Z,21.70
2022-12-19T08:27:24.302Z,19.17
2022-12-19T08:29:50.537Z,25.93
2022-12-19T08:32:21.246Z,27.57
2022-12-19T08:34:48.538Z,22.13
2022-12-19T08:40:07.491Z,26.27
2022-12-19T08:42:33.888Z,24.50
2022-12-19T08:45:01.992Z,20.20
2022-12-19T08:47:29.326Z,20.60
2022-12-19T08:49:57.028Z,21.47
2022-12-19T08:52:23.275Z,23.57
2022-12-19T08:54:50.131Z,17.97
2022-12-19T08:57:17.808Z,28.27
2022-12-19T08:59:44.725Z,22.27
2022-12-19T09:05:58.726Z,24.37
2022-12-19T09:07:50.504Z,25.73
2022-12-19T09:11:03.925Z,21.27
2022-12-19T09:13:31.854Z,19.63
2022-12-19T09:16:08.585Z,19.27
2022-12-19T09:18:35.116Z,19.70
2022-12-19T09:21:02.448Z,26.67
2022-12-19T09:23:35.669Z,21.70
2022-12-19T09:26:04.451Z,20.73
2022-12-19T09:33:54.620Z,20.67
2022-12-19T09:39:10.250Z,20.63
2022-12-19T09:41:49.642Z,18.67
2022-12-19T09:44:42.170Z,20.47
2022-12-19T09:47:40.577Z,20.90
2022-12-19T09:50:21.935Z,22.10
2022-12-19T09:52:53.982Z,19.07
2022-12-19T09:55:24.897Z,22.00
2022-12-19T09:58:13.514Z,26.40
2022-12-19T10:00:44.329Z,18.50
2022-12-19T10:06:53.210Z,22.17
2022-12-19T10:08:56.968Z,19.90
2022-12-19T10:12:44.932Z,19.43
2022-12-19T10:15:03.109Z,23.27
2022-12-19T10:17:35.159Z,20.05
2022-12-19T10:20:20.295Z,19.00
2022-12-19T10:23:02.835Z,20.53
2022-12-19T10:25:36.924Z,32.73
2022-12-19T10:28:24.030Z,20.13
2022-12-19T10:33:53.905Z,21.83
2022-12-19T10:36:48.827Z,19.20
2022-12-19T10:46:17.234Z,19.90
2022-12-19T11:43:46.705Z,24.37
2022-12-19T11:46:21.869Z,20.43
2022-12-19T11:49:07.515Z,25.00
2022-12-19T11:51:49.614Z,22.13
2022-12-19T11:54:19.341Z,20.77
2022-12-19T11:56:45.345Z,24.52
2022-12-19T12:02:16.325Z,25.00
2022-12-19T12:05:03.402Z,24.73
2022-12-19T12:08:43.007Z,29.73
2022-12-19T12:14:05.885Z,35.80
2022-12-19T12:20:16.002Z,33.03
2022-12-19T12:30:59.851Z,22.67
2022-12-19T12:31:06.484Z,24.48
2022-12-19T12:31:07.145Z,26.20
2022-12-19T12:31:54.110Z,27.38
2022-12-19T12:35:33.272Z,24.00
2022-12-19T12:35:34.259Z,28.43
2022-12-19T12:54:34.074Z,24.83
2022-12-19T12:57:01.276Z,26.07
2022-12-19T13:02:20.780Z,28.33
2022-12-19T13:04:59.373Z,25.57
2022-12-19T13:07:28.832Z,33.20
2022-12-19T13:13:24.247Z,26.07
2022-12-19T13:15:52.220Z,24.73
2022-12-19T13:18:37.313Z,26.63
2022-12-19T13:21:05.125Z,21.93
2022-12-19T13:23:34.490Z,25.13
2022-12-19T13:26:02.774Z,23.70
2022-12-19T13:28:29.833Z,30.53
2022-12-19T13:31:18.906Z,24.83
2022-12-19T13:34:09.843Z,24.53
2022-12-19T13:39:55.539Z,26.13
2022-12-19T13:40:08.845Z,25.87
2022-12-19T13:43:10.464Z,24.73
2022-12-19T13:45:38.592Z,24.03
2022-12-19T13:48:15.480Z,25.57
2022-12-19T13:50:43.127Z,23.90
2022-12-19T13:53:14.747Z,21.13
2022-12-19T13:55:41.785Z,22.13
2022-12-19T13:58:17.997Z,21.97
2022-12-19T14:00:53.434Z,23.48
2022-12-19T14:03:21.989Z,27.05
2022-12-19T14:06:15.996Z,24.65
2022-12-19T14:08:34.780Z,23.00
2022-12-19T14:11:41.217Z,27.17
2022-12-19T14:14:17.774Z,30.02
2022-12-19T14:22:20.538Z,25.40
2022-12-19T16:16:40.464Z,32.58
2022-12-19T16:22:17.288Z,31.42
2022-12-19T16:27:27.430Z,29.40
2022-12-19T16:29:54.443Z,27.45
2022-12-19T16:32:23.533Z,25.65
2022-12-19T16:34:53.463Z,32.33
2022-12-19T16:37:20.058Z,27.23
2022-12-19T16:39:52.892Z,24.80
2022-12-19T16:42:19.956Z,28.48
2022-12-19T16:44:48.451Z,30.02
2022-12-19T16:47:20.945Z,25.13
2022-12-19T16:49:47.841Z,29.00
2022-12-19T16:52:14.920Z,29.13
2022-12-19T16:54:44.194Z,25.27
2022-12-19T16:57:20.068Z,27.17
2022-12-19T17:04:56.316Z,28.88
2022-12-19T17:07:23.421Z,27.90
2022-12-19T17:10:25.924Z,26.70
2022-12-19T17:12:52.857Z,25.40
2022-12-19T17:15:21.757Z,29.45
2022-12-19T17:17:49.102Z,24.42
2022-12-19T17:20:18.452Z,35.42
2022-12-19T17:22:45.834Z,27.73
2022-12-19T17:25:15.240Z,29.95
2022-12-19T17:27:41.207Z,28.67
2022-12-19T17:30:09.993Z,31.40
2022-12-19T17:32:39.063Z,34.08
2022-12-19T17:35:06.021Z,27.52
2022-12-19T17:37:34.956Z,28.38
2022-12-19T17:40:15.070Z,31.08
2022-12-19T17:45:22.780Z,32.05
2022-12-19T17:47:52.250Z,28.25
2022-12-19T17:53:05.325Z,28.75
2022-12-19T17:55:32.238Z,27.10
2022-12-19T17:58:00.285Z,28.40
2022-12-19T18:00:30.733Z,28.77
2022-12-19T18:05:25.613Z,24.40
2022-12-19T18:07:56.612Z,27.48
2022-12-19T18:13:18.662Z,25.45
2022-12-19T18:15:47.002Z,31.00
2022-12-19T18:21:06.911Z,32.50
2022-12-19T18:23:33.899Z,32.85
2022-12-19T18:26:02.411Z,34.13
2022-12-19T18:28:34.103Z,28.33
2022-12-19T18:31:02.602Z,29.77
2022-12-19T18:33:40.640Z,33.05
2022-12-19T18:36:22.623Z,32.95
2022-12-19T18:39:13.775Z,31.00
2022-12-19T18:41:40.786Z,32.92
2022-12-19T18:44:08.569Z,29.08
2022-12-19T18:46:45.347Z,31.10
2022-12-19T18:51:55.440Z,31.77
2022-12-19T18:54:21.859Z,31.73
2022-12-19T18:59:31.902Z,30.40
2022-12-19T19:01:58.106Z,29.73
2022-12-19T19:04:29.626Z,30.77
2022-12-19T19:06:58.639Z,34.92
2022-12-19T19:13:10.585Z,31.73
2022-12-19T19:15:43.164Z,38.08
2022-12-19T19:21:00.435Z,32.25
2022-12-19T19:23:29.302Z,32.35
2022-12-19T19:25:55.707Z,29.13
2022-12-19T19:28:21.877Z,34.05
2022-12-19T19:30:49.085Z,31.83
2022-12-19T19:33:17.991Z,36.53
2022-12-19T19:35:50.782Z,29.20
2022-12-19T19:38:22.910Z,31.85
2022-12-19T19:40:50.918Z,28.88
2022-12-19T19:43:16.847Z,28.98
2022-12-19T19:45:43.901Z,31.27
2022-12-19T19:48:10.877Z,35.20
2022-12-19T19:50:37.026Z,28.60
2022-12-19T19:53:04.048Z,28.25
2022-12-19T19:55:30.241Z,25.05
2022-12-19T19:57:59.528Z,27.73
2022-12-19T20:00:26.663Z,34.17
2022-12-19T20:02:52.842Z,34.00
2022-12-19T20:05:19.132Z,34.25
2022-12-19T20:07:45.337Z,36.00
2022-12-19T20:10:12.567Z,26.38
2022-12-19T20:12:39.614Z,37.63
2022-12-19T20:15:08.414Z,30.60
2022-12-19T20:17:37.886Z,31.05
2022-12-19T20:20:04.147Z,29.30
2022-12-19T20:22:30.367Z,27.38
2022-12-19T20:24:56.941Z,33.50
2022-12-19T20:27:23.996Z,25.55
2022-12-19T20:29:49.952Z,26.70
2022-12-19T20:32:17.268Z,26.30
2022-12-19T20:34:43.647Z,26.30
2022-12-19T20:37:09.547Z,26.83
2022-12-19T20:39:39.707Z,25.63
2022-12-19T20:42:10.499Z,29.52
2022-12-19T20:44:36.754Z,28.38
2022-12-19T20:47:03.432Z,28.42
2022-12-19T20:49:30.171Z,29.60
2022-12-19T20:51:56.706Z,25.52
2022-12-19T20:54:25.659Z,25.73
2022-12-19T20:56:52.062Z,31.58
2022-12-19T20:59:19.143Z,24.33
2022-12-19T21:01:45.515Z,24.33
2022-12-19T21:04:11.786Z,24.20
2022-12-19T21:06:39.572Z,25.33
2022-12-19T21:09:17.993Z,23.92
2022-12-19T21:11:44.261Z,22.15
2022-12-19T21:14:11.466Z,23.45
2022-12-19T21:16:37.865Z,27.08
2022-12-19T21:19:05.230Z,25.83
2022-12-19T21:21:31.222Z,27.30
2022-12-19T21:23:57.338Z,28.20
2022-12-19T21:26:25.623Z,25.88
2022-12-19T21:28:52.082Z,30.05
2022-12-19T21:31:20.283Z,26.65
2022-12-19T21:33:46.605Z,24.73
2022-12-19T21:36:14.421Z,26.65
2022-12-19T21:38:51.206Z,22.38
2022-12-19T21:41:20.232Z,23.38
2022-12-19T21:43:53.128Z,26.83
2022-12-19T21:46:19.992Z,22.10
2022-12-19T21:48:47.133Z,23.23
2022-12-19T21:51:13.976Z,22.75
2022-12-19T21:53:39.966Z,26.42
2022-12-19T21:56:08.887Z,25.90
2022-12-19T21:58:34.632Z,26.20
2022-12-19T22:01:08.314Z,24.65
2022-12-19T22:03:34.562Z,23.63
2022-12-19T22:06:00.405Z,23.55
2022-12-19T22:08:29.385Z,23.45
2022-12-19T22:10:55.664Z,22.85
2022-12-19T22:13:22.693Z,22.45
2022-12-19T22:15:48.995Z,22.63
2022-12-19T22:18:15.067Z,20.17
2022-12-19T22:20:44.311Z,21.63
2022-12-19T22:23:13.352Z,23.05
2022-12-19T22:25:39.617Z,19.23
2022-12-19T22:28:06.385Z,26.67
2022-12-19T22:30:33.663Z,23.23
2022-12-19T22:32:59.678Z,24.30
2022-12-19T22:35:25.763Z,19.33
2022-12-19T22:37:52.034Z,19.17
2022-12-19T22:40:17.998Z,19.08
2022-12-19T22:42:43.910Z,19.67
2022-12-19T22:45:10.473Z,23.67
2022-12-19T22:47:36.439Z,19.00
2022-12-19T22:50:02.403Z,21.23
2022-12-19T22:52:28.825Z,21.58
2022-12-19T22:54:54.796Z,22.23
2022-12-19T22:57:20.617Z,22.98
2022-12-19T22:59:46.362Z,21.30
2022-12-19T23:02:12.168Z,18.60
2022-12-19T23:04:38.076Z,21.33
2022-12-19T23:07:03.828Z,16.80
2022-12-19T23:09:29.581Z,19.15
2022-12-19T23:11:55.307Z,16.80
2022-12-19T23:14:21.055Z,19.45
2022-12-19T23:16:47.278Z,19.88
2022-12-19T23:19:16.055Z,19.25
2022-12-19T23:21:41.822Z,19.08
2022-12-19T23:24:07.642Z,18.55
2022-12-19T23:26:34.573Z,18.48
2022-12-19T23:29:02.450Z,16.63
2022-12-19T23:31:28.871Z,19.45
2022-12-19T23:33:55.150Z,16.88
2022-12-19T23:36:45.142Z,18.73
2022-12-19T23:39:06.669Z,17.30
2022-12-19T23:41:32.559Z,19.42
2022-12-19T23:43:58.538Z,20.02
2022-12-19T23:46:25.291Z,17.83
2022-12-19T23:48:52.091Z,18.25
2022-12-19T23:51:18.966Z,19.17
2022-12-19T23:53:44.796Z,17.77
2022-12-19T23:56:11.832Z,23.77
2022-12-19T23:58:37.604Z,19.67
